Time;durP1;ratioP1;P1;durP2;ratioP2;P2;SDS_P1;SDS_P2;PMS_P1;PMS_P2;Temp;Humidity;BMP_temperature;BMP_pressure;BME280_temperature;BME280_humidity;BME280_pressure;Samples;Min_cycle;Max_cycle;Signal;HPM_P1;HPM_P2
2022/04/03 00:00:40;;;;;;;9.65;6.07;;;;;;;7.76;54.00;100286.56;5013477;28;20535;-87
2022/04/03 00:03:06;;;;;;;8.55;6.40;;;;;;;7.75;53.23;100275.44;5013326;28;20033;-87
2022/04/03 00:05:35;;;;;;;7.93;5.75;;;;;;;7.69;53.17;100268.00;5013434;28;20475;-86
2022/04/03 00:08:00;;;;;;;8.48;5.80;;;;;;;7.81;53.33;100281.22;5014022;28;20029;-87
2022/04/03 00:10:26;;;;;;;9.30;5.95;;;;;;;7.62;53.22;100230.53;5012930;28;20029;-87
2022/04/03 00:12:51;;;;;;;8.07;5.70;;;;;;;7.73;53.52;100243.75;5013172;28;20040;-86
2022/04/03 00:15:17;;;;;;;10.05;6.20;;;;;;;7.74;53.66;100237.72;5012981;28;20029;-88
2022/04/03 00:17:43;;;;;;;9.05;5.90;;;;;;;7.83;53.16;100249.34;5013218;28;20108;-87
2022/04/03 00:20:09;;;;;;;8.90;6.40;;;;;;;7.79;53.37;100236.69;4996546;28;20033;-87
2022/04/03 00:22:35;;;;;;;8.27;5.60;;;;;;;7.70;53.14;100215.59;5013233;28;20415;-87
2022/04/03 00:25:00;;;;;;;9.20;6.07;;;;;;;7.84;52.96;100234.75;5029595;28;20035;-87
2022/04/03 00:27:26;;;;;;;8.50;6.40;;;;;;;7.85;53.14;100241.56;5012911;28;20029;-88
2022/04/03 00:29:52;;;;;;;9.23;6.28;;;;;;;7.62;53.46;100225.38;5012804;28;20600;-87
2022/04/03 00:32:17;;;;;;;8.68;5.90;;;;;;;7.77;53.84;100247.06;5029291;28;20025;-87
2022/04/03 00:34:43;;;;;;;8.90;5.80;;;;;;;7.85;53.06;100249.28;5013114;28;20506;-87
2022/04/03 00:37:08;;;;;;;8.52;5.88;;;;;;;7.88;53.28;100250.00;5013057;28;20479;-87
2022/04/03 00:39:34;;;;;;;8.93;5.97;;;;;;;7.91;53.13;100259.34;5029479;28;20033;-87
2022/04/03 00:41:59;;;;;;;9.27;6.43;;;;;;;7.79;53.43;100255.56;5013053;28;20030;-88
2022/04/03 00:44:25;;;;;;;11.68;6.20;;;;;;;7.60;53.98;100250.34;5013024;28;20483;-87
2022/04/03 00:46:50;;;;;;;10.25;6.05;;;;;;;7.56;53.86;100247.97;5029049;28;20033;-87
2022/04/03 00:49:16;;;;;;;9.35;5.93;;;;;;;7.67;54.13;100267.22;5029314;28;20025;-87
2022/04/03 00:51:41;;;;;;;7.80;5.60;;;;;;;7.51;53.71;100240.44;5012918;28;20560;-88
2022/04/03 00:54:07;;;;;;;7.47;5.60;;;;;;;7.59;53.51;100258.97;4996476;28;20026;-87
2022/04/03 00:56:33;;;;;;;8.63;5.95;;;;;;;7.64;53.49;100262.19;5013193;28;20037;-87
2022/04/03 00:58:59;;;;;;;8.30;6.00;;;;;;;7.74;53.42;100263.47;5012689;28;20041;-88
2022/04/03 01:01:24;;;;;;;9.13;5.72;;;;;;;7.80;53.01;100256.38;5012218;28;20414;-87
2022/04/03 01:03:50;;;;;;;8.82;5.72;;;;;;;7.72;53.18;100236.94;5012763;28;20029;-87
2022/04/03 01:06:15;;;;;;;8.48;5.80;;;;;;;7.85;52.94;100250.13;5013031;28;20087;-87
2022/04/03 01:08:42;;;;;;;8.90;5.95;;;;;;;7.83;53.61;100245.94;5012705;28;20061;-88
2022/04/03 01:11:13;;;;;;;8.90;6.28;;;;;;;7.69;53.47;100233.69;5012865;28;20057;-87
2022/04/03 01:13:46;;;;;;;7.40;5.88;;;;;;;7.90;53.44;100273.13;5013058;28;20025;-87
2022/04/03 01:16:11;;;;;;;;;;;;;;;8.03;53.54;100271.66;5013100;28;20029;-88
2022/04/03 01:18:37;;;;;;;7.10;5.20;;;;;;;8.03;53.00;100269.09;5029100;28;19919;-87
2022/04/03 01:21:02;;;;;;;9.88;6.47;;;;;;;7.91;53.86;100252.44;4996232;28;20072;-87
2022/04/03 01:23:28;;;;;;;10.38;6.32;;;;;;;7.87;53.48;100262.97;5012629;28;20037;-87
2022/04/03 01:25:53;;;;;;;10.05;6.60;;;;;;;7.88;53.61;100270.63;5028998;28;20403;-87
2022/04/03 01:28:19;;;;;;;9.32;6.55;;;;;;;7.55;54.00;100248.88;5028748;28;20058;-87
2022/04/03 01:30:44;;;;;;;9.60;6.57;;;;;;;7.76;53.94;100271.13;5013526;28;20065;-87
2022/04/03 01:33:10;;;;;;;9.75;6.35;;;;;;;7.69;54.23;100274.88;4999644;28;20021;-87
2022/04/03 01:35:35;;;;;;;8.75;5.85;;;;;;;7.82;53.91;100281.16;5033675;28;20037;-87
2022/04/03 01:38:01;;;;;;;8.50;6.22;;;;;;;7.70;54.34;100267.09;5016096;28;20458;-86
2022/04/03 01:40:26;;;;;;;7.07;5.38;;;;;;;7.67;56.55;100272.38;5015762;28;20056;-88
2022/04/03 01:42:52;;;;;;;7.88;5.40;;;;;;;7.71;55.08;100286.78;4998921;28;20428;-86
2022/04/03 01:45:17;;;;;;;7.32;5.60;;;;;;;7.65;57.11;100278.47;5016161;28;20033;-87
2022/04/03 01:47:43;;;;;;;7.95;5.45;;;;;;;7.74;56.75;100284.06;4999306;28;20029;-88
2022/04/03 01:50:08;;;;;;;7.97;5.38;;;;;;;7.58;57.40;100272.75;5032202;28;20076;-88
2022/04/03 01:52:34;;;;;;;7.30;5.32;;;;;;;7.59;57.75;100273.59;5015687;28;20407;-86
2022/04/03 01:54:59;;;;;;;7.88;5.45;;;;;;;7.59;58.32;100292.44;4999350;28;20029;-87
2022/04/03 01:57:25;;;;;;;6.80;4.88;;;;;;;7.50;58.18;100292.00;5031798;28;20363;-88
2022/04/03 01:59:51;;;;;;;7.45;5.20;;;;;;;7.49;57.69;100304.03;5031918;28;20131;-87
2022/04/03 02:02:16;;;;;;;6.75;5.18;;;;;;;7.55;58.17;100298.59;5015587;28;20392;-88
2022/04/03 02:04:42;;;;;;;8.68;5.63;;;;;;;7.58;59.25;100303.66;4999203;28;20675;-87
2022/04/03 02:07:07;;;;;;;7.45;5.45;;;;;;;7.38;58.87;100304.47;5015485;28;20045;-87
2022/04/03 02:09:34;;;;;;;8.38;5.45;;;;;;;7.22;59.59;100279.41;5015461;28;20033;-87
2022/04/03 02:11:59;;;;;;;8.68;5.40;;;;;;;7.40;60.46;100299.25;5015104;28;20025;-87
2022/04/03 02:14:25;;;;;;;8.68;5.22;;;;;;;7.22;60.45;100289.72;5031552;28;20033;-87
2022/04/03 02:16:53;;;;;;;7.65;5.13;;;;;;;7.18;60.39;100305.28;5031584;28;20025;-86
2022/04/03 02:19:19;;;;;;;6.30;4.55;;;;;;;7.09;60.84;100300.50;5015132;28;20025;-88
2022/04/03 02:21:44;;;;;;;6.93;5.03;;;;;;;6.99;61.88;100293.22;5032865;28;20433;-87
2022/04/03 02:24:10;;;;;;;7.53;4.75;;;;;;;7.09;61.78;100300.50;5015127;28;20437;-88
2022/04/03 02:26:35;;;;;;;9.32;4.88;;;;;;;7.06;61.02;100303.16;5031400;28;20041;-88
2022/04/03 02:29:01;;;;;;;7.70;5.15;;;;;;;7.08;61.64;100309.13;5032799;28;20029;-87
2022/04/03 02:31:26;;;;;;;8.00;5.45;;;;;;;7.11;62.95;100328.72;5014930;28;20026;-88
2022/04/03 02:33:52;;;;;;;7.40;5.07;;;;;;;7.13;62.13;100327.75;5031174;28;20030;-87
2022/04/03 02:36:17;;;;;;;9.27;5.47;;;;;;;7.14;61.11;100323.44;5031375;28;20025;-87
2022/04/03 02:38:43;;;;;;;8.63;5.60;;;;;;;7.14;63.46;100339.72;5014762;28;20029;-87
2022/04/03 02:41:08;;;;;;;7.75;5.00;;;;;;;7.13;62.62;100345.78;5014507;28;20033;-88
2022/04/03 02:43:34;;;;;;;8.45;5.32;;;;;;;7.00;64.19;100357.44;5014759;28;20021;-87
2022/04/03 02:46:00;;;;;;;10.63;6.20;;;;;;;6.90;65.71;100331.25;4998684;28;20492;-87
2022/04/03 02:48:25;;;;;;;10.07;6.07;;;;;;;6.83;66.54;100334.94;5014461;28;20033;-87
2022/04/03 02:50:51;;;;;;;8.18;5.78;;;;;;;6.63;67.08;100328.88;5014348;28;20032;-88
2022/04/03 02:53:16;;;;;;;9.00;6.10;;;;;;;6.79;67.42;100347.97;5031049;28;20162;-88
2022/04/03 02:55:42;;;;;;;11.70;6.30;;;;;;;6.57;68.43;100343.59;5013957;28;20395;-87
2022/04/03 02:58:07;;;;;;;10.52;6.13;;;;;;;6.36;69.08;100336.69;5030687;28;20052;-87
2022/04/03 03:00:35;;;;;;;8.43;5.68;;;;;;;6.39;69.44;100354.59;4998056;28;20435;-86
2022/04/03 03:03:01;;;;;;;9.55;5.30;;;;;;;6.25;69.40;100356.78;5014641;28;20521;-85
2022/04/03 03:05:26;;;;;;;9.07;4.93;;;;;;;6.20;70.40;100354.41;5014332;28;20049;-87
2022/04/03 03:07:52;;;;;;;9.30;5.03;;;;;;;6.29;69.91;100363.47;5030707;28;20040;-86
2022/04/03 03:10:19;;;;;;;8.38;5.53;;;;;;;6.22;70.36;100362.03;5013664;28;20036;-87
2022/04/03 03:12:46;;;;;;;9.90;5.18;;;;;;;6.18;70.65;100369.00;4998020;28;20033;-86
2022/04/03 03:15:12;;;;;;;8.13;5.80;;;;;;;6.30;71.56;100372.91;5014235;28;20506;-86
2022/04/03 03:17:38;;;;;;;9.40;5.57;;;;;;;6.14;70.40;100362.31;5013908;28;20557;-87
2022/04/03 03:20:05;;;;;;;9.05;5.60;;;;;;;6.28;70.14;100382.34;4997748;28;20029;-87
2022/04/03 03:22:31;;;;;;;11.05;5.90;;;;;;;6.33;70.30;100393.31;5014316;28;20026;-86
2022/04/03 03:24:57;;;;;;;11.75;6.75;;;;;;;6.36;71.16;100388.06;5013799;28;20465;-86
2022/04/03 03:27:22;;;;;;;9.13;6.40;;;;;;;6.24;71.57;100371.38;5013858;28;20041;-87
2022/04/03 03:29:48;;;;;;;9.13;5.85;;;;;;;6.49;72.05;100397.03;5030248;28;20510;-86
2022/04/03 03:32:13;;;;;;;11.82;6.90;;;;;;;6.59;71.14;100402.69;5013732;28;20037;-87
2022/04/03 03:34:39;;;;;;;10.38;6.15;;;;;;;6.40;70.60;100393.97;4997488;28;20403;-86
2022/04/03 03:37:04;;;;;;;9.60;6.10;;;;;;;6.47;71.68;100403.94;5030254;28;20021;-86
2022/04/03 03:39:30;;;;;;;9.48;6.45;;;;;;;6.38;71.28;100399.13;4996764;28;20041;-85
2022/04/03 03:41:56;;;;;;;10.68;6.68;;;;;;;6.29;71.36;100394.31;5029939;28;20021;-87
2022/04/03 03:44:22;;;;;;;11.15;6.68;;;;;;;6.37;71.14;100410.31;5013632;28;20036;-87
2022/04/03 03:46:48;;;;;;;11.45;6.78;;;;;;;6.22;71.24;100408.28;5013965;28;20028;-87
2022/04/03 03:49:14;;;;;;;9.43;6.68;;;;;;;6.25;70.89;100411.56;5029956;28;20025;-87
2022/04/03 03:51:39;;;;;;;10.15;7.28;;;;;;;6.21;72.26;100401.47;4997217;28;20056;-87
2022/04/03 03:54:05;;;;;;;12.50;7.93;;;;;;;6.24;70.96;100407.31;5028980;28;20483;-86
2022/04/03 03:56:30;;;;;;;10.70;7.75;;;;;;;6.29;70.62;100404.59;5013471;28;20036;-86
2022/04/03 03:58:56;;;;;;;12.18;8.15;;;;;;;6.28;70.26;100403.75;5013076;28;20136;-86
2022/04/03 04:01:22;;;;;;;13.57;8.18;;;;;;;6.31;70.15;100425.94;5013456;28;20029;-86
2022/04/03 04:03:48;;;;;;;12.65;8.25;;;;;;;6.24;69.83;100401.34;5013489;28;20033;-87
2022/04/03 04:06:14;;;;;;;13.77;8.10;;;;;;;6.41;69.44;100426.47;4997063;28;20030;-87
2022/04/03 04:08:39;;;;;;;12.52;7.60;;;;;;;6.35;69.71;100430.06;5013078;28;20506;-86
2022/04/03 04:11:05;;;;;;;12.43;7.88;;;;;;;6.28;69.84;100419.16;5029709;28;20079;-86
2022/04/03 04:13:32;;;;;;;13.98;8.50;;;;;;;6.13;70.79;100413.72;5029251;28;20053;-87
2022/04/03 04:15:58;;;;;;;10.48;6.88;;;;;;;6.15;70.99;100422.22;5013251;28;20040;-87
2022/04/03 04:18:24;;;;;;;11.55;7.07;;;;;;;6.22;71.01;100429.66;5013266;28;20029;-86
2022/04/03 04:20:50;;;;;;;11.18;6.20;;;;;;;6.00;70.49;100414.16;5013300;28;20099;-87
2022/04/03 04:23:16;;;;;;;11.35;7.35;;;;;;;6.35;70.98;100450.63;5029036;28;20025;-86
2022/04/03 04:25:42;;;;;;;10.80;7.15;;;;;;;6.23;71.45;100430.50;5029401;28;20033;-86
2022/04/03 04:28:07;;;;;;;10.80;6.93;;;;;;;6.21;69.96;100437.44;5013047;28;20041;-87
2022/04/03 04:30:33;;;;;;;9.95;6.85;;;;;;;6.38;70.13;100458.22;4996656;28;20032;-87
2022/04/03 04:32:58;;;;;;;10.85;6.72;;;;;;;6.43;70.30;100464.06;4996685;28;20048;-87
2022/04/03 04:35:24;;;;;;;10.65;7.15;;;;;;;6.45;70.29;100461.44;5013340;28;20034;-87
2022/04/03 04:37:50;;;;;;;9.65;6.32;;;;;;;6.41;70.16;100465.84;5028844;28;20483;-87
2022/04/03 04:40:16;;;;;;;10.60;6.60;;;;;;;6.43;70.32;100474.34;4996622;28;20124;-87
2022/04/03 04:42:41;;;;;;;9.20;6.72;;;;;;;6.44;70.41;100477.75;5029389;28;20034;-86
2022/04/03 04:45:07;;;;;;;10.77;7.40;;;;;;;6.45;70.32;100477.69;5029414;28;20030;-87
2022/04/03 04:47:36;;;;;;;11.43;7.25;;;;;;;6.27;69.37;100475.75;5012917;28;20040;-87
2022/04/03 04:50:06;;;;;;;11.20;7.57;;;;;;;6.35;70.36;100485.75;4996540;28;20036;-88
2022/04/03 04:52:31;;;;;;;14.02;8.50;;;;;;;6.29;70.59;100482.53;4996200;28;20034;-87
2022/04/03 04:54:57;;;;;;;13.57;8.43;;;;;;;6.37;68.28;100479.69;5029298;28;20489;-88
2022/04/03 04:57:22;;;;;;;15.90;9.82;;;;;;;6.44;68.96;100488.88;5012850;28;20064;-87
2022/04/03 04:59:48;;;;;;;15.90;10.00;;;;;;;6.47;67.90;100486.19;5012468;28;20076;-87
2022/04/03 05:02:13;;;;;;;16.90;9.82;;;;;;;6.30;66.61;100491.06;5029269;28;20079;-87
2022/04/03 05:04:38;;;;;;;18.25;11.43;;;;;;;6.20;67.33;100499.97;4997227;28;20491;-87
2022/04/03 05:07:04;;;;;;;19.13;11.50;;;;;;;6.04;69.35;100508.16;5049424;28;20030;-87
2022/04/03 05:09:31;;;;;;;17.35;10.88;;;;;;;6.09;65.67;100509.72;5032757;28;20029;-86
2022/04/03 05:11:57;;;;;;;20.02;11.73;;;;;;;5.89;66.74;100488.06;5032901;28;20519;-87
2022/04/03 05:14:22;;;;;;;19.13;11.35;;;;;;;6.07;66.68;100503.81;5032774;28;20057;-87
2022/04/03 05:16:48;;;;;;;22.98;12.27;;;;;;;6.13;66.30;100522.44;5016188;28;20120;-86
2022/04/03 05:19:13;;;;;;;22.80;13.02;;;;;;;6.12;64.24;100525.06;5016280;28;20025;-87
2022/04/03 05:21:40;;;;;;;22.58;12.85;;;;;;;6.19;65.88;100526.53;5033377;28;20481;-87
2022/04/03 05:24:05;;;;;;;23.70;13.55;;;;;;;6.15;63.89;100527.53;5032761;28;20030;-87
2022/04/03 05:26:31;;;;;;;22.55;12.38;;;;;;;6.14;63.72;100533.56;5032773;28;20040;-87
2022/04/03 05:28:56;;;;;;;23.20;13.13;;;;;;;6.28;63.77;100549.34;5032622;28;20461;-88
2022/04/03 05:31:25;;;;;;;25.48;14.40;;;;;;;6.20;64.64;100528.22;5016121;28;20129;-88
2022/04/03 05:33:50;;;;;;;22.83;13.13;;;;;;;6.31;62.71;100531.28;5032511;28;20038;-86
2022/04/03 05:36:16;;;;;;;24.05;14.40;;;;;;;6.40;63.48;100548.13;5015651;28;20021;-87
2022/04/03 05:38:41;;;;;;;23.20;13.23;;;;;;;6.37;64.15;100541.34;5032178;28;20025;-87
2022/04/03 05:41:07;;;;;;;19.52;11.43;;;;;;;6.40;61.83;100545.56;5015806;28;20123;-87
2022/04/03 05:43:32;;;;;;;18.95;12.10;;;;;;;6.35;63.59;100543.13;5015968;28;20061;-87
2022/04/03 05:45:57;;;;;;;20.65;12.10;;;;;;;6.39;62.76;100557.56;5032614;28;20029;-87
2022/04/03 05:48:23;;;;;;;21.33;12.88;;;;;;;6.52;63.81;100566.56;5032062;28;20033;-87
2022/04/03 05:50:50;;;;;;;20.05;12.70;;;;;;;6.23;62.43;100520.41;5015371;28;20463;-87
2022/04/03 05:53:15;;;;;;;24.15;13.45;;;;;;;6.44;62.47;100552.28;5032178;28;20132;-88
2022/04/03 05:55:41;;;;;;;25.02;14.50;;;;;;;6.57;61.85;100567.22;5015672;28;20478;-87
2022/04/03 05:58:07;;;;;;;24.58;14.13;;;;;;;6.57;64.61;100559.50;5032088;28;20150;-87
2022/04/03 06:00:34;;;;;;;24.20;14.20;;;;;;;6.61;63.27;100560.25;5015589;28;20052;-86
2022/04/03 06:03:01;;;;;;;25.33;14.40;;;;;;;6.85;61.99;100582.56;5032027;28;20067;-87
2022/04/03 06:05:28;;;;;;;25.13;14.48;;;;;;;6.80;61.84;100586.19;5015157;28;20114;-88
2022/04/03 06:07:53;;;;;;;23.27;14.63;;;;;;;6.88;61.71;100586.75;5015462;28;20083;-87
2022/04/03 06:10:20;;;;;;;21.73;13.15;;;;;;;6.78;61.86;100587.97;5031564;28;20029;-87
2022/04/03 06:12:59;;;;;;;22.65;12.05;;;;;;;6.93;61.33;100602.03;5031706;28;20029;-87
2022/04/03 06:15:26;;;;;;;21.15;12.23;;;;;;;6.85;61.12;100579.16;5031822;28;20025;-87
2022/04/03 06:17:52;;;;;;;21.55;12.63;;;;;;;7.04;62.08;100603.34;5031099;28;20112;-87
2022/04/03 06:20:18;;;;;;;20.95;11.43;;;;;;;7.10;61.20;100605.72;5031371;28;20080;-87
2022/04/03 06:22:44;;;;;;;23.13;13.68;;;;;;;7.08;60.15;100602.38;5031641;28;20095;-87
2022/04/03 06:25:10;;;;;;;25.92;14.45;;;;;;;7.15;60.52;100603.81;5015087;28;20491;-88
2022/04/03 06:27:35;;;;;;;19.33;12.40;;;;;;;7.18;59.03;100616.59;5031600;28;20026;-87
2022/04/03 06:30:01;;;;;;;18.10;11.60;;;;;;;6.96;58.93;100607.91;5015016;28;20029;-87
2022/04/03 06:32:26;;;;;;;20.85;12.93;;;;;;;6.89;60.13;100609.03;5031305;28;20037;-87
2022/04/03 06:34:52;;;;;;;18.33;12.65;;;;;;;7.04;59.73;100639.34;5031144;28;20034;-87
2022/04/03 06:37:17;;;;;;;14.50;9.55;;;;;;;6.79;58.15;100626.50;5047989;28;20026;-86
2022/04/03 06:39:43;;;;;;;18.75;11.50;;;;;;;6.92;58.49;100626.09;5031056;28;20091;-89
2022/04/03 06:42:08;;;;;;;18.33;10.82;;;;;;;6.76;57.59;100620.59;5014604;28;20034;-86
2022/04/03 06:44:34;;;;;;;18.30;10.10;;;;;;;6.81;57.39;100639.31;5031182;28;20036;-87
2022/04/03 06:47:00;;;;;;;16.02;10.60;;;;;;;6.76;57.41;100652.28;5031074;28;20060;-87
2022/04/03 06:49:25;;;;;;;15.77;10.25;;;;;;;6.95;58.74;100646.53;5030846;28;20082;-87
2022/04/03 06:51:51;;;;;;;17.10;10.27;;;;;;;6.84;57.55;100646.91;5031013;28;20037;-86
2022/04/03 06:54:16;;;;;;;16.90;10.95;;;;;;;6.82;58.18;100636.69;5030895;28;20033;-87
2022/04/03 06:56:42;;;;;;;16.63;10.90;;;;;;;7.09;59.00;100667.53;5047684;28;20033;-88
2022/04/03 06:59:07;;;;;;;15.60;9.73;;;;;;;7.14;56.98;100669.03;5030620;28;20400;-87
2022/04/03 07:01:33;;;;;;;13.32;9.43;;;;;;;7.19;57.15;100677.44;5030893;28;20041;-87
2022/04/03 07:03:58;;;;;;;16.17;10.70;;;;;;;7.10;58.36;100667.47;5030545;28;20075;-87
2022/04/03 07:06:24;;;;;;;16.55;11.57;;;;;;;7.24;57.57;100672.13;5030757;28;20499;-87
2022/04/03 07:08:49;;;;;;;16.08;9.82;;;;;;;7.47;57.93;100685.06;5030461;28;20041;-87
2022/04/03 07:11:15;;;;;;;17.23;10.80;;;;;;;7.52;56.61;100682.31;5030431;28;20063;-87
2022/04/03 07:13:41;;;;;;;19.10;12.55;;;;;;;7.76;59.07;100689.13;5030346;28;20057;-86
2022/04/03 07:16:06;;;;;;;12.15;7.68;;;;;;;7.71;53.30;100667.03;5030561;28;20076;-87
2022/04/03 07:18:35;;;;;;;11.95;7.95;;;;;;;7.82;53.05;100689.81;5014169;28;20029;-87
2022/04/03 07:21:00;;;;;;;9.07;6.47;;;;;;;7.68;51.58;100701.47;5014224;28;20033;-86
2022/04/03 07:23:26;;;;;;;9.88;7.05;;;;;;;7.73;50.96;100694.41;5014095;28;20029;-86
2022/04/03 07:25:51;;;;;;;13.43;7.05;;;;;;;7.65;52.11;100696.41;5014040;28;20040;-87
2022/04/03 07:28:17;;;;;;;10.60;6.85;;;;;;;7.83;53.35;100704.38;4996667;28;20029;-88
2022/04/03 07:30:42;;;;;;;10.07;6.30;;;;;;;7.79;51.93;100695.09;4997119;28;20084;-86
2022/04/03 07:33:08;;;;;;;9.07;6.82;;;;;;;7.69;51.13;100699.72;5013747;28;20025;-87
2022/04/03 07:35:33;;;;;;;9.15;6.00;;;;;;;7.75;52.18;100708.06;5030138;28;20029;-86
2022/04/03 07:37:59;;;;;;;11.27;6.65;;;;;;;7.98;53.12;100716.72;5030370;28;20099;-87
2022/04/03 07:40:25;;;;;;;10.52;6.80;;;;;;;7.91;49.66;100702.38;4997234;28;20495;-86
2022/04/03 07:42:52;;;;;;;11.23;6.85;;;;;;;7.85;48.96;100705.16;5013840;28;20109;-87
2022/04/03 07:45:18;;;;;;;11.43;7.50;;;;;;;8.06;50.36;100717.25;5029812;28;20083;-87
2022/04/03 07:47:45;;;;;;;10.35;7.65;;;;;;;8.25;52.03;100707.09;5013651;28;20029;-87
2022/04/03 07:50:10;;;;;;;9.70;6.25;;;;;;;8.33;49.63;100716.22;5013420;28;20033;-87
2022/04/03 07:52:36;;;;;;;8.68;6.20;;;;;;;8.08;47.26;100683.72;5029635;28;20032;-86
2022/04/03 07:55:02;;;;;;;8.80;5.88;;;;;;;8.13;48.47;100713.56;5029951;28;20056;-86
2022/04/03 07:57:27;;;;;;;8.00;5.10;;;;;;;7.97;48.09;100733.06;4997124;28;20455;-86
2022/04/03 07:59:53;;;;;;;7.53;4.60;;;;;;;8.23;47.90;100734.66;5012833;28;20053;-87
2022/04/03 08:02:18;;;;;;;9.65;6.03;;;;;;;8.29;47.56;100727.56;5013236;28;20091;-87
2022/04/03 08:04:43;;;;;;;9.07;5.30;;;;;;;8.29;45.96;100721.56;5013282;28;20021;-87
2022/04/03 08:07:09;;;;;;;11.52;7.35;;;;;;;8.33;47.10;100725.69;5013024;28;20418;-86
2022/04/03 08:09:34;;;;;;;11.40;7.35;;;;;;;8.39;46.20;100738.38;5029721;28;20034;-87
2022/04/03 08:12:00;;;;;;;11.32;6.70;;;;;;;8.14;47.13;100709.22;5013213;28;20503;-87
2022/04/03 08:14:27;;;;;;;7.53;5.43;;;;;;;8.20;47.17;100745.94;5029283;28;20036;-88
2022/04/03 08:16:53;;;;;;;12.63;8.38;;;;;;;8.23;48.66;100714.03;5029519;28;20040;-86
2022/04/03 08:19:20;;;;;;;9.13;6.15;;;;;;;8.42;46.88;100750.31;4996807;28;20410;-87
2022/04/03 08:21:45;;;;;;;9.98;6.38;;;;;;;8.52;47.20;100733.59;5013442;28;20128;-86
2022/04/03 08:24:11;;;;;;;8.63;5.43;;;;;;;8.67;46.39;100755.38;5029566;28;20041;-86
2022/04/03 08:26:36;;;;;;;9.63;6.20;;;;;;;8.56;46.39;100741.16;5013212;28;20029;-87
2022/04/03 08:29:02;;;;;;;11.52;7.20;;;;;;;8.35;46.84;100703.28;5029140;28;20045;-87
2022/04/03 08:31:30;;;;;;;7.85;5.63;;;;;;;8.46;46.59;100723.53;5029498;28;20025;-87
2022/04/03 08:33:56;;;;;;;9.60;7.57;;;;;;;8.65;46.65;100747.69;5013288;28;20037;-87
2022/04/03 08:36:21;;;;;;;9.27;5.78;;;;;;;8.84;46.06;100743.47;5012996;28;20025;-87
2022/04/03 08:38:47;;;;;;;12.45;7.53;;;;;;;8.71;46.18;100705.34;5029372;28;20033;-87
2022/04/03 08:41:13;;;;;;;13.95;8.73;;;;;;;9.08;46.38;100759.72;5032754;28;20511;-87
2022/04/03 08:43:40;;;;;;;10.55;6.22;;;;;;;8.90;45.63;100753.56;5016450;28;20037;-87
2022/04/03 08:46:07;;;;;;;10.70;6.55;;;;;;;8.77;46.48;100752.38;5016981;28;20151;-86
2022/04/03 08:48:32;;;;;;;9.45;5.97;;;;;;;8.63;45.02;100718.53;5017160;28;20057;-87
2022/04/03 08:51:02;;;;;;;10.48;7.68;;;;;;;8.96;45.78;100761.97;5033303;28;20106;-87
2022/04/03 08:53:28;;;;;;;9.75;6.72;;;;;;;9.22;44.86;100769.47;5017277;28;20033;-87
2022/04/03 08:55:54;;;;;;;9.38;6.03;;;;;;;9.29;43.03;100770.91;5016628;28;20462;-86
2022/04/03 08:58:20;;;;;;;7.32;4.75;;;;;;;9.25;42.85;100773.69;4999805;28;20081;-87
2022/04/03 09:00:45;;;;;;;9.05;6.30;;;;;;;9.11;44.60;100766.50;5016877;28;20035;-87
2022/04/03 09:03:12;;;;;;;12.10;7.70;;;;;;;9.28;42.57;100733.09;5033007;28;20026;-85
2022/04/03 09:05:39;;;;;;;10.85;6.15;;;;;;;9.66;44.27;100769.38;5016827;28;20491;-87
2022/04/03 09:08:05;;;;;;;10.77;7.65;;;;;;;9.80;42.66;100772.19;5000316;28;20037;-87
2022/04/03 09:10:30;;;;;;;9.20;6.05;;;;;;;9.90;40.88;100783.81;5032931;28;20045;-87
2022/04/03 09:12:56;;;;;;;10.65;6.82;;;;;;;9.88;41.77;100761.53;5015965;28;20068;-87
2022/04/03 09:15:22;;;;;;;8.60;5.75;;;;;;;9.87;41.23;100786.53;5016518;28;20035;-87
2022/04/03 09:17:52;;;;;;;8.73;5.75;;;;;;;9.72;39.58;100769.09;5016508;28;20072;-87
2022/04/03 09:20:22;;;;;;;8.13;5.72;;;;;;;9.89;40.66;100778.72;5033195;28;20037;-87
2022/04/03 09:22:56;;;;;;;5.10;3.90;;;;;;;9.94;40.58;100784.53;5016276;28;20123;-87
2022/04/03 09:25:38;;;;;;;8.10;5.18;;;;;;;10.02;41.21;100775.50;5016090;28;20487;-87
2022/04/03 09:28:06;;;;;;;6.82;5.10;;;;;;;10.24;42.13;100790.13;5032339;28;20034;-87
2022/04/03 09:30:32;;;;;;;11.23;7.97;;;;;;;10.53;43.55;100800.00;5016145;28;20029;-87
2022/04/03 09:32:58;;;;;;;8.57;6.57;;;;;;;10.75;40.46;100804.16;5032051;28;20033;-86
2022/04/03 09:35:31;;;;;;;8.90;6.07;;;;;;;10.68;39.65;100808.78;5016237;28;20400;-87
2022/04/03 09:38:15;;;;;;;9.45;5.82;;;;;;;10.58;39.32;100787.66;5016402;28;20087;-87
2022/04/03 09:40:49;;;;;;;7.63;5.68;;;;;;;10.40;39.57;100804.03;4999711;28;20029;-88
2022/04/03 09:43:21;;;;;;;7.07;4.72;;;;;;;10.27;38.64;100805.50;5032182;28;20061;-86
2022/04/03 09:45:49;;;;;;;5.28;4.03;;;;;;;10.36;38.43;100818.00;5032106;28;20028;-88
2022/04/03 09:48:39;;;;;;;10.48;6.93;;;;;;;10.41;39.31;100786.75;5016274;28;20112;-87
2022/04/03 09:51:08;;;;;;;7.07;5.03;;;;;;;10.36;38.53;100817.19;5015800;28;20037;-87
2022/04/03 09:53:49;;;;;;;7.72;4.88;;;;;;;10.04;39.62;100817.66;5031829;28;20041;-87
2022/04/03 09:56:37;;;;;;;10.10;6.55;;;;;;;10.10;39.31;100826.03;5015292;28;20060;-87
2022/04/03 09:59:06;;;;;;;11.05;6.40;;;;;;;9.88;39.90;100806.31;5016227;28;20045;-87
2022/04/03 10:01:42;;;;;;;10.57;6.13;;;;;;;10.10;40.11;100826.03;4999631;28;20087;-87
2022/04/03 10:04:08;;;;;;;7.68;4.68;;;;;;;10.07;38.39;100832.19;5015398;28;20061;-87
2022/04/03 10:06:34;;;;;;;6.65;5.22;;;;;;;10.12;39.30;100817.31;5015442;28;20033;-87
2022/04/03 10:08:59;;;;;;;11.80;7.32;;;;;;;10.43;39.06;100819.44;5031909;28;20446;-87
2022/04/03 10:11:25;;;;;;;9.02;5.00;;;;;;;10.63;38.12;100816.78;5014767;28;20116;-87
2022/04/03 10:13:51;;;;;;;6.78;5.45;;;;;;;10.57;38.56;100827.38;5031817;28;20040;-86
2022/04/03 10:16:17;;;;;;;6.85;5.55;;;;;;;10.77;39.36;100836.81;4999194;28;20049;-87
2022/04/03 10:18:43;;;;;;;8.57;6.43;;;;;;;10.60;37.97;100837.59;5015037;28;20025;-87
2022/04/03 10:21:19;;;;;;;6.53;5.55;;;;;;;10.50;38.66;100838.06;5031608;28;20029;-87
2022/04/03 10:23:45;;;;;;;10.07;6.63;;;;;;;10.56;39.62;100845.56;4999794;28;20029;-86
2022/04/03 10:26:11;;;;;;;10.55;6.95;;;;;;;10.50;38.56;100833.75;5014853;28;20407;-87
2022/04/03 10:28:38;;;;;;;8.30;6.28;;;;;;;10.31;38.62;100832.88;4998866;28;20110;-87
2022/04/03 10:31:07;;;;;;;9.30;6.97;;;;;;;10.22;39.39;100857.41;5015143;28;20053;-86
2022/04/03 10:33:40;;;;;;;8.50;5.88;;;;;;;10.16;39.57;100854.22;5015344;28;20454;-87
2022/04/03 10:36:07;;;;;;;6.30;4.60;;;;;;;9.81;39.35;100822.97;5014877;28;20033;-87
2022/04/03 10:38:37;;;;;;;7.13;4.43;;;;;;;9.71;40.06;100839.75;5031396;28;20414;-87
2022/04/03 10:41:03;;;;;;;10.60;7.88;;;;;;;9.65;40.14;100850.38;5031000;28;20037;-87
2022/04/03 10:43:29;;;;;;;10.80;7.28;;;;;;;9.64;40.29;100840.94;5014892;28;20036;-88
2022/04/03 10:45:55;;;;;;;7.70;6.40;;;;;;;9.64;39.68;100861.59;5031077;28;20026;-87
2022/04/03 10:48:20;;;;;;;8.05;6.35;;;;;;;9.77;40.67;100880.84;5014667;28;20028;-87
2022/04/03 10:51:06;;;;;;;7.38;5.28;;;;;;;9.82;40.24;100878.91;5032331;28;20103;-87
2022/04/03 10:53:54;;;;;;;8.38;6.55;;;;;;;9.76;40.29;100879.19;5030850;28;20034;-87
2022/04/03 10:56:25;;;;;;;9.02;6.78;;;;;;;10.25;40.41;100897.81;5017486;28;20513;-87
2022/04/03 10:58:52;;;;;;;9.40;6.32;;;;;;;10.36;39.20;100887.84;5014648;28;20422;-87
2022/04/03 11:01:31;;;;;;;5.18;4.00;;;;;;;10.15;38.48;100896.50;5015013;28;20029;-87
2022/04/03 11:04:00;;;;;;;6.20;4.85;;;;;;;10.13;39.50;100852.63;5014838;28;20220;-87
2022/04/03 11:06:34;;;;;;;9.13;7.22;;;;;;;10.23;39.09;100866.03;5030875;28;20030;-87
2022/04/03 11:09:12;;;;;;;7.72;6.30;;;;;;;10.40;39.16;100897.13;4998119;28;20399;-86
2022/04/03 11:11:39;;;;;;;6.43;4.90;;;;;;;10.29;39.17;100904.53;5030541;28;20033;-86
2022/04/03 11:14:08;;;;;;;8.77;5.95;;;;;;;10.13;40.01;100903.47;5030818;28;20499;-87
2022/04/03 11:16:50;;;;;;;8.88;6.55;;;;;;;10.28;39.44;100908.84;5014594;28;20029;-87
2022/04/03 11:19:35;;;;;;;8.65;6.03;;;;;;;10.40;39.72;100884.19;5014594;28;20022;-88
2022/04/03 11:22:03;;;;;;;9.50;7.30;;;;;;;10.70;38.58;100883.75;5014383;28;20091;-87
2022/04/03 11:24:30;;;;;;;10.05;7.05;;;;;;;10.77;38.79;100879.97;5013502;28;20056;-88